sensor_id;sensor_type;location;lat;lon;timestamp;P1;durP1;ratioP1;P2;durP2;ratioP2
78308;SDS011;67566;42.022;21.356;2023-12-04T00:00:00;10.02;;;6.97;;
78308;SDS011;67566;42.022;21.356;2023-12-04T00:02:28;14.45;;;7.70;;
78308;SDS011;67566;42.022;21.356;2023-12-04T00:04:53;12.32;;;7.07;;
78308;SDS011;67566;42.022;21.356;2023-12-04T00:07:19;15.13;;;8.02;;
78308;SDS011;67566;42.022;21.356;2023-12-04T00:09:44;16.80;;;8.70;;
78308;SDS011;67566;42.022;21.356;2023-12-04T00:12:10;15.00;;;7.93;;
78308;SDS011;67566;42.022;21.356;2023-12-04T00:14:35;14.43;;;7.55;;
78308;SDS011;67566;42.022;21.356;2023-12-04T00:17:01;13.15;;;7.35;;
78308;SDS011;67566;42.022;21.356;2023-12-04T00:19:26;12.68;;;6.60;;
78308;SDS011;67566;42.022;21.356;2023-12-04T00:21:52;11.57;;;6.55;;
78308;SDS011;67566;42.022;21.356;2023-12-04T00:24:17;13.43;;;7.07;;
78308;SDS011;67566;42.022;21.356;2023-12-04T00:26:43;11.80;;;7.60;;
78308;SDS011;67566;42.022;21.356;2023-12-04T00:29:08;13.25;;;7.57;;
78308;SDS011;67566;42.022;21.356;2023-12-04T00:31:34;13.20;;;7.10;;
78308;SDS011;67566;42.022;21.356;2023-12-04T00:33:59;10.98;;;7.18;;
78308;SDS011;67566;42.022;21.356;2023-12-04T00:36:25;13.88;;;8.13;;
78308;SDS011;67566;42.022;21.356;2023-12-04T00:38:51;12.00;;;5.57;;
78308;SDS011;67566;42.022;21.356;2023-12-04T00:41:16;12.95;;;7.53;;
78308;SDS011;67566;42.022;21.356;2023-12-04T00:43:42;13.43;;;5.80;;
78308;SDS011;67566;42.022;21.356;2023-12-04T00:46:07;12.00;;;5.97;;
78308;SDS011;67566;42.022;21.356;2023-12-04T00:48:33;11.55;;;6.63;;
78308;SDS011;67566;42.022;21.356;2023-12-04T00:50:58;10.35;;;6.20;;
78308;SDS011;67566;42.022;21.356;2023-12-04T00:53:24;21.13;;;6.75;;
78308;SDS011;67566;42.022;21.356;2023-12-04T00:55:51;12.88;;;6.72;;
78308;SDS011;67566;42.022;21.356;2023-12-04T00:58:16;16.70;;;7.78;;
78308;SDS011;67566;42.022;21.356;2023-12-04T01:00:42;11.15;;;6.38;;
78308;SDS011;67566;42.022;21.356;2023-12-04T01:03:07;14.90;;;6.07;;
78308;SDS011;67566;42.022;21.356;2023-12-04T01:05:33;22.35;;;7.35;;
78308;SDS011;67566;42.022;21.356;2023-12-04T01:07:58;12.75;;;5.82;;
78308;SDS011;67566;42.022;21.356;2023-12-04T01:10:24;12.48;;;5.38;;
78308;SDS011;67566;42.022;21.356;2023-12-04T01:12:49;13.73;;;5.80;;
78308;SDS011;67566;42.022;21.356;2023-12-04T01:15:15;13.40;;;6.07;;
78308;SDS011;67566;42.022;21.356;2023-12-04T01:17:40;16.42;;;5.82;;
78308;SDS011;67566;42.022;21.356;2023-12-04T01:20:06;11.60;;;5.43;;
78308;SDS011;67566;42.022;21.356;2023-12-04T01:22:32;13.15;;;5.78;;
78308;SDS011;67566;42.022;21.356;2023-12-04T01:24:58;14.77;;;6.70;;
78308;SDS011;67566;42.022;21.356;2023-12-04T01:27:23;10.20;;;5.35;;
78308;SDS011;67566;42.022;21.356;2023-12-04T01:29:49;10.38;;;5.70;;
78308;SDS011;67566;42.022;21.356;2023-12-04T01:32:14;9.80;;;5.40;;
78308;SDS011;67566;42.022;21.356;2023-12-04T01:34:40;11.27;;;5.10;;
78308;SDS011;67566;42.022;21.356;2023-12-04T01:37:05;11.02;;;5.10;;
78308;SDS011;67566;42.022;21.356;2023-12-04T01:39:31;11.02;;;5.97;;
78308;SDS011;67566;42.022;21.356;2023-12-04T01:41:56;10.05;;;5.75;;
78308;SDS011;67566;42.022;21.356;2023-12-04T01:44:22;10.35;;;6.05;;
78308;SDS011;67566;42.022;21.356;2023-12-04T01:46:48;10.70;;;5.95;;
78308;SDS011;67566;42.022;21.356;2023-12-04T01:49:14;11.38;;;5.32;;
78308;SDS011;67566;42.022;21.356;2023-12-04T01:51:40;11.52;;;5.90;;
78308;SDS011;67566;42.022;21.356;2023-12-04T01:54:05;10.38;;;6.07;;
78308;SDS011;67566;42.022;21.356;2023-12-04T01:56:32;9.43;;;6.25;;
78308;SDS011;67566;42.022;21.356;2023-12-04T01:58:59;9.52;;;5.18;;
78308;SDS011;67566;42.022;21.356;2023-12-04T02:01:25;8.70;;;4.68;;
78308;SDS011;67566;42.022;21.356;2023-12-04T02:03:52;11.10;;;5.10;;
78308;SDS011;67566;42.022;21.356;2023-12-04T02:06:19;9.48;;;5.40;;
78308;SDS011;67566;42.022;21.356;2023-12-04T02:08:47;9.48;;;5.13;;
78308;SDS011;67566;42.022;21.356;2023-12-04T02:11:13;9.82;;;5.65;;
78308;SDS011;67566;42.022;21.356;2023-12-04T02:13:39;9.45;;;5.90;;
78308;SDS011;67566;42.022;21.356;2023-12-04T02:16:05;13.55;;;5.50;;
78308;SDS011;67566;42.022;21.356;2023-12-04T02:18:34;8.55;;;5.25;;
78308;SDS011;67566;42.022;21.356;2023-12-04T02:21:01;9.75;;;5.85;;
78308;SDS011;67566;42.022;21.356;2023-12-04T02:23:27;10.55;;;5.28;;
78308;SDS011;67566;42.022;21.356;2023-12-04T02:25:58;9.85;;;5.93;;
78308;SDS011;67566;42.022;21.356;2023-12-04T02:28:30;8.85;;;4.88;;
78308;SDS011;67566;42.022;21.356;2023-12-04T02:30:58;8.75;;;5.15;;
78308;SDS011;67566;42.022;21.356;2023-12-04T02:33:24;10.07;;;4.85;;
78308;SDS011;67566;42.022;21.356;2023-12-04T02:35:51;10.20;;;5.53;;
78308;SDS011;67566;42.022;21.356;2023-12-04T02:38:18;8.95;;;4.97;;
78308;SDS011;67566;42.022;21.356;2023-12-04T02:40:44;9.50;;;4.93;;
78308;SDS011;67566;42.022;21.356;2023-12-04T02:43:10;7.68;;;4.72;;
78308;SDS011;67566;42.022;21.356;2023-12-04T02:45:36;8.18;;;4.95;;
78308;SDS011;67566;42.022;21.356;2023-12-04T02:48:01;8.60;;;5.05;;
78308;SDS011;67566;42.022;21.356;2023-12-04T02:50:27;8.68;;;5.80;;
78308;SDS011;67566;42.022;21.356;2023-12-04T02:52:52;9.52;;;5.80;;
78308;SDS011;67566;42.022;21.356;2023-12-04T02:55:18;7.90;;;5.15;;
78308;SDS011;67566;42.022;21.356;2023-12-04T02:57:44;8.05;;;5.28;;
78308;SDS011;67566;42.022;21.356;2023-12-04T03:00:09;7.50;;;4.68;;
78308;SDS011;67566;42.022;21.356;2023-12-04T03:02:35;10.52;;;6.38;;
78308;SDS011;67566;42.022;21.356;2023-12-04T03:05:01;9.88;;;6.03;;
78308;SDS011;67566;42.022;21.356;2023-12-04T03:07:26;8.35;;;5.22;;
78308;SDS011;67566;42.022;21.356;2023-12-04T03:09:52;7.72;;;4.93;;
78308;SDS011;67566;42.022;21.356;2023-12-04T03:12:17;10.50;;;6.25;;
78308;SDS011;67566;42.022;21.356;2023-12-04T03:14:43;9.05;;;5.60;;
78308;SDS011;67566;42.022;21.356;2023-12-04T03:17:09;12.25;;;6.10;;
78308;SDS011;67566;42.022;21.356;2023-12-04T03:19:34;8.52;;;5.15;;
78308;SDS011;67566;42.022;21.356;2023-12-04T03:22:00;9.68;;;6.20;;
78308;SDS011;67566;42.022;21.356;2023-12-04T03:24:26;10.45;;;5.50;;
78308;SDS011;67566;42.022;21.356;2023-12-04T03:26:52;8.30;;;5.05;;
78308;SDS011;67566;42.022;21.356;2023-12-04T03:29:17;7.07;;;5.05;;
78308;SDS011;67566;42.022;21.356;2023-12-04T03:31:43;6.95;;;5.10;;
78308;SDS011;67566;42.022;21.356;2023-12-04T03:34:08;8.90;;;5.47;;
78308;SDS011;67566;42.022;21.356;2023-12-04T03:36:34;7.00;;;4.70;;
78308;SDS011;67566;42.022;21.356;2023-12-04T03:38:59;10.95;;;5.43;;
78308;SDS011;67566;42.022;21.356;2023-12-04T03:41:25;8.57;;;6.10;;
78308;SDS011;67566;42.022;21.356;2023-12-04T03:43:50;9.27;;;5.68;;
78308;SDS011;67566;42.022;21.356;2023-12-04T03:46:16;8.70;;;5.85;;
78308;SDS011;67566;42.022;21.356;2023-12-04T03:48:41;10.38;;;5.32;;
78308;SDS011;67566;42.022;21.356;2023-12-04T03:51:07;11.35;;;6.53;;
78308;SDS011;67566;42.022;21.356;2023-12-04T03:53:33;10.50;;;5.75;;
78308;SDS011;67566;42.022;21.356;2023-12-04T03:55:58;9.63;;;5.40;;
78308;SDS011;67566;42.022;21.356;2023-12-04T03:58:24;7.47;;;5.10;;
78308;SDS011;67566;42.022;21.356;2023-12-04T04:00:50;13.35;;;6.15;;
78308;SDS011;67566;42.022;21.356;2023-12-04T04:03:15;8.50;;;5.72;;
78308;SDS011;67566;42.022;21.356;2023-12-04T04:05:41;14.13;;;6.07;;
78308;SDS011;67566;42.022;21.356;2023-12-04T04:08:06;8.90;;;6.05;;
78308;SDS011;67566;42.022;21.356;2023-12-04T04:10:33;10.25;;;6.57;;
78308;SDS011;67566;42.022;21.356;2023-12-04T04:12:59;10.02;;;6.53;;
78308;SDS011;67566;42.022;21.356;2023-12-04T04:15:25;9.60;;;6.15;;
78308;SDS011;67566;42.022;21.356;2023-12-04T04:17:51;11.50;;;6.60;;
78308;SDS011;67566;42.022;21.356;2023-12-04T04:20:17;8.48;;;5.60;;
78308;SDS011;67566;42.022;21.356;2023-12-04T04:22:42;10.40;;;6.30;;
78308;SDS011;67566;42.022;21.356;2023-12-04T04:25:08;11.48;;;6.13;;
78308;SDS011;67566;42.022;21.356;2023-12-04T04:27:35;10.15;;;5.93;;
78308;SDS011;67566;42.022;21.356;2023-12-04T04:30:00;11.68;;;7.40;;
78308;SDS011;67566;42.022;21.356;2023-12-04T04:32:26;11.30;;;6.82;;
78308;SDS011;67566;42.022;21.356;2023-12-04T04:34:52;9.55;;;6.18;;
78308;SDS011;67566;42.022;21.356;2023-12-04T04:37:18;9.13;;;5.38;;
78308;SDS011;67566;42.022;21.356;2023-12-04T04:39:44;12.13;;;7.35;;
78308;SDS011;67566;42.022;21.356;2023-12-04T04:42:10;10.15;;;7.40;;
78308;SDS011;67566;42.022;21.356;2023-12-04T04:44:35;9.82;;;6.63;;
78308;SDS011;67566;42.022;21.356;2023-12-04T04:47:01;10.73;;;5.68;;
78308;SDS011;67566;42.022;21.356;2023-12-04T04:49:27;9.63;;;6.93;;
78308;SDS011;67566;42.022;21.356;2023-12-04T04:51:52;9.25;;;5.15;;
78308;SDS011;67566;42.022;21.356;2023-12-04T04:54:18;10.38;;;5.97;;
78308;SDS011;67566;42.022;21.356;2023-12-04T04:56:43;12.43;;;7.28;;
78308;SDS011;67566;42.022;21.356;2023-12-04T04:59:09;10.95;;;6.40;;
78308;SDS011;67566;42.022;21.356;2023-12-04T05:01:34;10.90;;;5.75;;
78308;SDS011;67566;42.022;21.356;2023-12-04T05:04:01;9.27;;;5.95;;
78308;SDS011;67566;42.022;21.356;2023-12-04T05:06:27;10.05;;;6.97;;
78308;SDS011;67566;42.022;21.356;2023-12-04T05:08:52;8.77;;;6.00;;
78308;SDS011;67566;42.022;21.356;2023-12-04T05:11:18;9.63;;;5.85;;
78308;SDS011;67566;42.022;21.356;2023-12-04T05:13:46;12.48;;;6.78;;
78308;SDS011;67566;42.022;21.356;2023-12-04T05:16:12;9.63;;;6.10;;
78308;SDS011;67566;42.022;21.356;2023-12-04T05:18:38;12.35;;;7.47;;
78308;SDS011;67566;42.022;21.356;2023-12-04T05:21:08;9.52;;;6.40;;
78308;SDS011;67566;42.022;21.356;2023-12-04T05:23:34;9.68;;;6.07;;
78308;SDS011;67566;42.022;21.356;2023-12-04T05:25:59;10.82;;;6.38;;
78308;SDS011;67566;42.022;21.356;2023-12-04T05:28:25;10.75;;;6.53;;
78308;SDS011;67566;42.022;21.356;2023-12-04T05:30:51;10.85;;;6.95;;
78308;SDS011;67566;42.022;21.356;2023-12-04T05:33:16;13.35;;;6.68;;
78308;SDS011;67566;42.022;21.356;2023-12-04T05:35:42;12.63;;;6.82;;
78308;SDS011;67566;42.022;21.356;2023-12-04T05:38:07;12.85;;;7.53;;
78308;SDS011;67566;42.022;21.356;2023-12-04T05:40:33;11.73;;;7.30;;
78308;SDS011;67566;42.022;21.356;2023-12-04T05:42:59;11.80;;;7.80;;
78308;SDS011;67566;42.022;21.356;2023-12-04T05:45:24;13.48;;;7.60;;
78308;SDS011;67566;42.022;21.356;2023-12-04T05:47:50;13.57;;;7.60;;
78308;SDS011;67566;42.022;21.356;2023-12-04T05:50:15;15.68;;;8.63;;
78308;SDS011;67566;42.022;21.356;2023-12-04T05:52:41;15.77;;;8.60;;
78308;SDS011;67566;42.022;21.356;2023-12-04T05:55:07;17.52;;;10.35;;
78308;SDS011;67566;42.022;21.356;2023-12-04T05:57:32;14.88;;;8.20;;
78308;SDS011;67566;42.022;21.356;2023-12-04T05:59:58;12.95;;;8.07;;
78308;SDS011;67566;42.022;21.356;2023-12-04T06:02:24;17.52;;;9.00;;
78308;SDS011;67566;42.022;21.356;2023-12-04T06:04:50;17.63;;;8.95;;
78308;SDS011;67566;42.022;21.356;2023-12-04T06:07:16;19.52;;;10.52;;
78308;SDS011;67566;42.022;21.356;2023-12-04T06:09:42;15.88;;;8.32;;
78308;SDS011;67566;42.022;21.356;2023-12-04T06:12:07;15.15;;;9.25;;
78308;SDS011;67566;42.022;21.356;2023-12-04T06:14:34;14.63;;;9.27;;
78308;SDS011;67566;42.022;21.356;2023-12-04T06:17:00;20.75;;;11.40;;
78308;SDS011;67566;42.022;21.356;2023-12-04T06:19:27;12.32;;;8.25;;
78308;SDS011;67566;42.022;21.356;2023-12-04T06:21:53;21.10;;;9.02;;
78308;SDS011;67566;42.022;21.356;2023-12-04T06:24:19;15.80;;;8.20;;
78308;SDS011;67566;42.022;21.356;2023-12-04T06:26:46;14.27;;;8.63;;
78308;SDS011;67566;42.022;21.356;2023-12-04T06:29:15;14.60;;;9.23;;
78308;SDS011;67566;42.022;21.356;2023-12-04T06:31:41;15.40;;;8.88;;
78308;SDS011;67566;42.022;21.356;2023-12-04T06:34:07;21.17;;;11.63;;
78308;SDS011;67566;42.022;21.356;2023-12-04T06:36:35;20.92;;;10.35;;
78308;SDS011;67566;42.022;21.356;2023-12-04T06:39:04;25.42;;;13.40;;
78308;SDS011;67566;42.022;21.356;2023-12-04T06:41:34;16.35;;;9.45;;
78308;SDS011;67566;42.022;21.356;2023-12-04T06:44:00;16.75;;;9.43;;
78308;SDS011;67566;42.022;21.356;2023-12-04T06:46:26;16.38;;;9.88;;
78308;SDS011;67566;42.022;21.356;2023-12-04T06:48:54;22.05;;;12.15;;
78308;SDS011;67566;42.022;21.356;2023-12-04T06:51:24;20.45;;;11.98;;
78308;SDS011;67566;42.022;21.356;2023-12-04T06:53:49;19.33;;;10.68;;
78308;SDS011;67566;42.022;21.356;2023-12-04T06:56:15;15.38;;;9.23;;
78308;SDS011;67566;42.022;21.356;2023-12-04T06:58:40;16.60;;;9.88;;
78308;SDS011;67566;42.022;21.356;2023-12-04T07:01:06;21.55;;;12.27;;
78308;SDS011;67566;42.022;21.356;2023-12-04T07:03:31;16.85;;;9.77;;
78308;SDS011;67566;42.022;21.356;2023-12-04T07:05:57;20.45;;;10.48;;
78308;SDS011;67566;42.022;21.356;2023-12-04T07:08:22;18.92;;;10.18;;
78308;SDS011;67566;42.022;21.356;2023-12-04T07:10:48;19.10;;;9.85;;
78308;SDS011;67566;42.022;21.356;2023-12-04T07:13:14;19.73;;;10.80;;
78308;SDS011;67566;42.022;21.356;2023-12-04T07:15:39;21.27;;;11.73;;
78308;SDS011;67566;42.022;21.356;2023-12-04T07:18:05;20.45;;;10.57;;
78308;SDS011;67566;42.022;21.356;2023-12-04T07:20:30;25.85;;;13.55;;
78308;SDS011;67566;42.022;21.356;2023-12-04T07:22:56;23.90;;;11.15;;
78308;SDS011;67566;42.022;21.356;2023-12-04T07:25:23;22.35;;;11.68;;
78308;SDS011;67566;42.022;21.356;2023-12-04T07:27:49;28.10;;;14.23;;
78308;SDS011;67566;42.022;21.356;2023-12-04T07:30:14;16.23;;;9.95;;
78308;SDS011;67566;42.022;21.356;2023-12-04T07:32:40;17.90;;;9.82;;
78308;SDS011;67566;42.022;21.356;2023-12-04T07:35:06;14.90;;;8.55;;
78308;SDS011;67566;42.022;21.356;2023-12-04T07:37:32;16.38;;;9.75;;
78308;SDS011;67566;42.022;21.356;2023-12-04T07:39:57;16.42;;;9.23;;
78308;SDS011;67566;42.022;21.356;2023-12-04T07:42:23;17.50;;;8.90;;
78308;SDS011;67566;42.022;21.356;2023-12-04T07:44:48;14.60;;;9.15;;
78308;SDS011;67566;42.022;21.356;2023-12-04T07:47:14;24.35;;;13.93;;
78308;SDS011;67566;42.022;21.356;2023-12-04T07:49:41;18.63;;;9.88;;
78308;SDS011;67566;42.022;21.356;2023-12-04T07:52:07;17.48;;;10.35;;
78308;SDS011;67566;42.022;21.356;2023-12-04T07:54:32;17.42;;;10.10;;
78308;SDS011;67566;42.022;21.356;2023-12-04T07:56:58;19.20;;;10.43;;
78308;SDS011;67566;42.022;21.356;2023-12-04T07:59:24;20.52;;;10.27;;
78308;SDS011;67566;42.022;21.356;2023-12-04T08:01:50;16.05;;;9.85;;
78308;SDS011;67566;42.022;21.356;2023-12-04T08:04:16;23.63;;;15.93;;
78308;SDS011;67566;42.022;21.356;2023-12-04T08:06:41;24.63;;;14.50;;
78308;SDS011;67566;42.022;21.356;2023-12-04T08:09:07;18.42;;;9.52;;
78308;SDS011;67566;42.022;21.356;2023-12-04T08:11:35;23.50;;;13.52;;
78308;SDS011;67566;42.022;21.356;2023-12-04T08:14:01;20.25;;;10.88;;
78308;SDS011;67566;42.022;21.356;2023-12-04T08:16:26;15.70;;;9.07;;
78308;SDS011;67566;42.022;21.356;2023-12-04T08:18:54;26.73;;;14.70;;
78308;SDS011;67566;42.022;21.356;2023-12-04T08:21:19;13.57;;;9.25;;
78308;SDS011;67566;42.022;21.356;2023-12-04T08:23:45;14.32;;;8.98;;
78308;SDS011;67566;42.022;21.356;2023-12-04T08:26:10;16.30;;;9.90;;
78308;SDS011;67566;42.022;21.356;2023-12-04T08:28:36;14.77;;;9.07;;
78308;SDS011;67566;42.022;21.356;2023-12-04T08:31:06;18.30;;;10.00;;
78308;SDS011;67566;42.022;21.356;2023-12-04T08:33:33;16.70;;;10.15;;
78308;SDS011;67566;42.022;21.356;2023-12-04T08:35:59;15.43;;;8.65;;
78308;SDS011;67566;42.022;21.356;2023-12-04T08:38:25;13.50;;;8.10;;
78308;SDS011;67566;42.022;21.356;2023-12-04T08:40:51;11.43;;;7.68;;
78308;SDS011;67566;42.022;21.356;2023-12-04T08:43:17;18.38;;;9.32;;
78308;SDS011;67566;42.022;21.356;2023-12-04T08:45:43;18.23;;;10.60;;
78308;SDS011;67566;42.022;21.356;2023-12-04T08:48:10;14.65;;;9.80;;
78308;SDS011;67566;42.022;21.356;2023-12-04T08:50:35;13.93;;;9.25;;
78308;SDS011;67566;42.022;21.356;2023-12-04T08:53:03;17.48;;;9.77;;
78308;SDS011;67566;42.022;21.356;2023-12-04T08:55:29;17.38;;;9.95;;
78308;SDS011;67566;42.022;21.356;2023-12-04T08:57:54;17.20;;;9.05;;
78308;SDS011;67566;42.022;21.356;2023-12-04T09:00:20;14.73;;;8.63;;
78308;SDS011;67566;42.022;21.356;2023-12-04T09:02:47;17.58;;;10.45;;
78308;SDS011;67566;42.022;21.356;2023-12-04T09:05:12;19.92;;;9.30;;
78308;SDS011;67566;42.022;21.356;2023-12-04T09:07:38;14.30;;;8.15;;
78308;SDS011;67566;42.022;21.356;2023-12-04T09:10:04;15.27;;;8.70;;
78308;SDS011;67566;42.022;21.356;2023-12-04T09:12:30;15.05;;;9.23;;
78308;SDS011;67566;42.022;21.356;2023-12-04T09:14:55;15.23;;;9.50;;
78308;SDS011;67566;42.022;21.356;2023-12-04T09:17:20;20.45;;;11.93;;
78308;SDS011;67566;42.022;21.356;2023-12-04T09:19:46;18.90;;;11.27;;
78308;SDS011;67566;42.022;21.356;2023-12-04T09:22:12;17.20;;;9.85;;
78308;SDS011;67566;42.022;21.356;2023-12-04T09:24:37;12.77;;;8.15;;
78308;SDS011;67566;42.022;21.356;2023-12-04T09:27:03;10.73;;;7.28;;
78308;SDS011;67566;42.022;21.356;2023-12-04T09:29:28;14.93;;;8.93;;
78308;SDS011;67566;42.022;21.356;2023-12-04T09:31:54;13.20;;;8.10;;
78308;SDS011;67566;42.022;21.356;2023-12-04T09:34:20;13.93;;;7.80;;
78308;SDS011;67566;42.022;21.356;2023-12-04T09:36:46;13.27;;;7.82;;
78308;SDS011;67566;42.022;21.356;2023-12-04T09:39:13;14.75;;;8.10;;
78308;SDS011;67566;42.022;21.356;2023-12-04T09:41:39;12.52;;;8.07;;
78308;SDS011;67566;42.022;21.356;2023-12-04T09:44:05;15.13;;;8.60;;
78308;SDS011;67566;42.022;21.356;2023-12-04T09:46:33;17.38;;;10.23;;
78308;SDS011;67566;42.022;21.356;2023-12-04T09:48:59;23.30;;;12.80;;
78308;SDS011;67566;42.022;21.356;2023-12-04T09:51:25;16.58;;;10.65;;
78308;SDS011;67566;42.022;21.356;2023-12-04T09:53:52;15.05;;;8.85;;
78308;SDS011;67566;42.022;21.356;2023-12-04T09:56:20;16.38;;;8.98;;
78308;SDS011;67566;42.022;21.356;2023-12-04T09:58:48;14.77;;;8.57;;
78308;SDS011;67566;42.022;21.356;2023-12-04T10:01:22;14.68;;;9.98;;
78308;SDS011;67566;42.022;21.356;2023-12-04T10:03:48;17.95;;;10.23;;
78308;SDS011;67566;42.022;21.356;2023-12-04T10:06:16;19.35;;;11.15;;
78308;SDS011;67566;42.022;21.356;2023-12-04T10:08:43;32.45;;;15.18;;
78308;SDS011;67566;42.022;21.356;2023-12-04T10:11:10;20.80;;;9.73;;
78308;SDS011;67566;42.022;21.356;2023-12-04T10:13:35;23.75;;;11.65;;
78308;SDS011;67566;42.022;21.356;2023-12-04T10:16:01;25.55;;;11.07;;
78308;SDS011;67566;42.022;21.356;2023-12-04T10:18:28;48.88;;;19.55;;
78308;SDS011;67566;42.022;21.356;2023-12-04T10:20:56;22.50;;;10.00;;
78308;SDS011;67566;42.022;21.356;2023-12-04T10:23:22;13.38;;;8.38;;
78308;SDS011;67566;42.022;21.356;2023-12-04T10:26:00;11.35;;;7.20;;
78308;SDS011;67566;42.022;21.356;2023-12-04T10:28:26;12.55;;;7.00;;
78308;SDS011;67566;42.022;21.356;2023-12-04T10:30:52;17.05;;;9.48;;
78308;SDS011;67566;42.022;21.356;2023-12-04T10:33:18;15.65;;;8.02;;
78308;SDS011;67566;42.022;21.356;2023-12-04T10:35:44;11.85;;;7.15;;
78308;SDS011;67566;42.022;21.356;2023-12-04T10:38:12;9.43;;;5.82;;
78308;SDS011;67566;42.022;21.356;2023-12-04T10:40:39;11.10;;;7.07;;
78308;SDS011;67566;42.022;21.356;2023-12-04T10:45:44;11.88;;;6.68;;
78308;SDS011;67566;42.022;21.356;2023-12-04T10:48:10;8.90;;;5.50;;
78308;SDS011;67566;42.022;21.356;2023-12-04T10:50:37;12.98;;;6.78;;
78308;SDS011;67566;42.022;21.356;2023-12-04T10:53:04;13.52;;;7.07;;
78308;SDS011;67566;42.022;21.356;2023-12-04T10:55:31;9.55;;;4.97;;
78308;SDS011;67566;42.022;21.356;2023-12-04T10:57:57;8.68;;;5.10;;
78308;SDS011;67566;42.022;21.356;2023-12-04T11:00:26;9.35;;;6.22;;
78308;SDS011;67566;42.022;21.356;2023-12-04T11:02:54;7.53;;;5.07;;
78308;SDS011;67566;42.022;21.356;2023-12-04T11:05:21;10.88;;;5.90;;
78308;SDS011;67566;42.022;21.356;2023-12-04T11:07:54;18.88;;;11.60;;
78308;SDS011;67566;42.022;21.356;2023-12-04T11:10:26;32.03;;;15.02;;
78308;SDS011;67566;42.022;21.356;2023-12-04T11:13:00;13.13;;;7.38;;
78308;SDS011;67566;42.022;21.356;2023-12-04T11:15:31;10.32;;;6.57;;
78308;SDS011;67566;42.022;21.356;2023-12-04T11:18:04;10.70;;;7.18;;
78308;SDS011;67566;42.022;21.356;2023-12-04T11:20:34;12.50;;;6.05;;
78308;SDS011;67566;42.022;21.356;2023-12-04T11:23:06;9.95;;;5.93;;
78308;SDS011;67566;42.022;21.356;2023-12-04T11:25:34;11.18;;;6.32;;
78308;SDS011;67566;42.022;21.356;2023-12-04T11:28:00;9.50;;;6.20;;
78308;SDS011;67566;42.022;21.356;2023-12-04T11:30:27;11.23;;;7.57;;
78308;SDS011;67566;42.022;21.356;2023-12-04T11:32:54;10.98;;;6.45;;
78308;SDS011;67566;42.022;21.356;2023-12-04T11:35:25;10.25;;;6.80;;
78308;SDS011;67566;42.022;21.356;2023-12-04T11:37:51;10.88;;;6.93;;
78308;SDS011;67566;42.022;21.356;2023-12-04T11:40:17;12.10;;;6.75;;
78308;SDS011;67566;42.022;21.356;2023-12-04T11:42:43;9.20;;;6.32;;
78308;SDS011;67566;42.022;21.356;2023-12-04T11:45:09;8.98;;;6.18;;
78308;SDS011;67566;42.022;21.356;2023-12-04T11:47:51;12.25;;;7.00;;
78308;SDS011;67566;42.022;21.356;2023-12-04T11:50:19;10.55;;;6.47;;
78308;SDS011;67566;42.022;21.356;2023-12-04T11:52:45;11.00;;;7.00;;
78308;SDS011;67566;42.022;21.356;2023-12-04T11:55:11;12.90;;;8.10;;
78308;SDS011;67566;42.022;21.356;2023-12-04T11:57:41;14.43;;;9.35;;
78308;SDS011;67566;42.022;21.356;2023-12-04T12:03:01;11.50;;;8.20;;
78308;SDS011;67566;42.022;21.356;2023-12-04T12:05:28;12.60;;;7.82;;
78308;SDS011;67566;42.022;21.356;2023-12-04T12:07:55;13.20;;;8.25;;
78308;SDS011;67566;42.022;21.356;2023-12-04T12:10:21;11.15;;;6.50;;
78308;SDS011;67566;42.022;21.356;2023-12-04T12:12:46;17.40;;;8.30;;
78308;SDS011;67566;42.022;21.356;2023-12-04T12:15:13;11.20;;;7.60;;
78308;SDS011;67566;42.022;21.356;2023-12-04T12:17:41;9.25;;;6.10;;
78308;SDS011;67566;42.022;21.356;2023-12-04T12:20:07;8.95;;;5.55;;
78308;SDS011;67566;42.022;21.356;2023-12-04T12:22:34;13.23;;;8.43;;
78308;SDS011;67566;42.022;21.356;2023-12-04T12:25:03;11.75;;;6.38;;
78308;SDS011;67566;42.022;21.356;2023-12-04T12:27:30;10.20;;;6.13;;
78308;SDS011;67566;42.022;21.356;2023-12-04T12:29:55;13.90;;;7.72;;
78308;SDS011;67566;42.022;21.356;2023-12-04T12:32:21;10.98;;;6.50;;
78308;SDS011;67566;42.022;21.356;2023-12-04T12:34:46;10.40;;;6.38;;
78308;SDS011;67566;42.022;21.356;2023-12-04T12:37:12;8.23;;;5.47;;
78308;SDS011;67566;42.022;21.356;2023-12-04T12:39:37;8.52;;;5.53;;
78308;SDS011;67566;42.022;21.356;2023-12-04T12:42:04;8.68;;;5.97;;
78308;SDS011;67566;42.022;21.356;2023-12-04T12:44:39;10.52;;;7.30;;
78308;SDS011;67566;42.022;21.356;2023-12-04T12:47:06;10.07;;;6.13;;
78308;SDS011;67566;42.022;21.356;2023-12-04T12:49:32;8.52;;;5.60;;
78308;SDS011;67566;42.022;21.356;2023-12-04T12:51:59;8.52;;;5.57;;
78308;SDS011;67566;42.022;21.356;2023-12-04T12:54:25;7.93;;;4.82;;
78308;SDS011;67566;42.022;21.356;2023-12-04T12:56:51;9.77;;;5.25;;
78308;SDS011;67566;42.022;21.356;2023-12-04T12:59:16;11.63;;;7.95;;
78308;SDS011;67566;42.022;21.356;2023-12-04T13:01:43;8.45;;;5.80;;
78308;SDS011;67566;42.022;21.356;2023-12-04T13:04:08;8.35;;;5.53;;
78308;SDS011;67566;42.022;21.356;2023-12-04T13:06:38;11.63;;;6.90;;
78308;SDS011;67566;42.022;21.356;2023-12-04T13:09:04;12.40;;;7.28;;
78308;SDS011;67566;42.022;21.356;2023-12-04T13:11:31;13.50;;;7.90;;
78308;SDS011;67566;42.022;21.356;2023-12-04T13:13:57;13.68;;;7.95;;
78308;SDS011;67566;42.022;21.356;2023-12-04T13:16:23;16.65;;;9.30;;
78308;SDS011;67566;42.022;21.356;2023-12-04T13:18:48;10.25;;;7.03;;
78308;SDS011;67566;42.022;21.356;2023-12-04T13:21:13;12.32;;;8.40;;
78308;SDS011;67566;42.022;21.356;2023-12-04T13:23:39;11.07;;;6.93;;
78308;SDS011;67566;42.022;21.356;2023-12-04T13:26:04;12.32;;;7.43;;
78308;SDS011;67566;42.022;21.356;2023-12-04T13:28:30;9.82;;;6.35;;
78308;SDS011;67566;42.022;21.356;2023-12-04T13:30:56;11.75;;;7.00;;
78308;SDS011;67566;42.022;21.356;2023-12-04T13:33:21;9.90;;;6.13;;
78308;SDS011;67566;42.022;21.356;2023-12-04T13:35:47;10.25;;;6.00;;
78308;SDS011;67566;42.022;21.356;2023-12-04T13:38:12;11.30;;;6.20;;
78308;SDS011;67566;42.022;21.356;2023-12-04T13:40:39;11.52;;;6.63;;
78308;SDS011;67566;42.022;21.356;2023-12-04T13:43:05;10.40;;;6.15;;
78308;SDS011;67566;42.022;21.356;2023-12-04T13:45:49;8.43;;;6.22;;
78308;SDS011;67566;42.022;21.356;2023-12-04T13:48:16;9.90;;;6.70;;
78308;SDS011;67566;42.022;21.356;2023-12-04T13:50:43;8.25;;;5.65;;
78308;SDS011;67566;42.022;21.356;2023-12-04T13:53:09;9.55;;;6.63;;
78308;SDS011;67566;42.022;21.356;2023-12-04T13:55:34;10.13;;;6.70;;
78308;SDS011;67566;42.022;21.356;2023-12-04T13:58:28;9.55;;;5.65;;
78308;SDS011;67566;42.022;21.356;2023-12-04T14:01:05;10.40;;;6.18;;
78308;SDS011;67566;42.022;21.356;2023-12-04T14:03:47;10.70;;;6.18;;
78308;SDS011;67566;42.022;21.356;2023-12-04T14:06:13;8.77;;;6.20;;
78308;SDS011;67566;42.022;21.356;2023-12-04T14:08:39;14.60;;;5.95;;
78308;SDS011;67566;42.022;21.356;2023-12-04T14:11:05;11.45;;;6.70;;
78308;SDS011;67566;42.022;21.356;2023-12-04T14:13:32;13.95;;;8.18;;
78308;SDS011;67566;42.022;21.356;2023-12-04T14:15:57;11.80;;;6.63;;
78308;SDS011;67566;42.022;21.356;2023-12-04T14:18:23;11.30;;;7.28;;
78308;SDS011;67566;42.022;21.356;2023-12-04T14:20:49;24.23;;;13.35;;
78308;SDS011;67566;42.022;21.356;2023-12-04T14:23:14;19.58;;;11.63;;